Terminal Aerodrome Forecast
Issued by NWS Albuquerque, NM

Home | Current Version | Previous Version | Text Only | Print | Product List | Glossary On
Versions: 1 2 3 4 5 6 7 8 9 10 11 12 13 14 15 16 17
316
FTUS45 KABQ 281120
TAFABQ
TAF
KABQ 281120Z 2812/0112 20016G24KT P6SM OVC070
     FM281600 23020G30KT P6SM VCSH OVC060
     FM281900 28028G39KT P6SM VCSH OVC050
      TEMPO 2820/2824 6SM -RASN OVC035
     FM010100 30025G32KT P6SM BKN050
     FM010400 31012KT P6SM SCT050=

USA.gov is the U.S. government's official web portal to all federal, state and local government web resources and services.